Salt Pond, Missouri
Current Conditions -  °F | °C
As of 6:58 PM on Monday 20 Oct 2014 (Local Time) from KSZL Reporting Station
Clear Clear  
Wind Chill: 63°   Ceiling: Unl
Heat Index: 63°   Visibility: 10mi
Dew Point: 46°   Wind: 0mph
Humidity: 54%   Direction: NA
Pressure: 30.02"   Gusts: NA
Location:  38.9707°N, 93.4332°W
Report Text: KSZL 202358Z 00000KT 10SM CLR 17/08 A3002 RMK AO2A SLP167 T01710078 10228 20171 402280097 52006 $
Loading
Personal Weather Stations






























Interactive Weather Map
Tropical Storm Tracking
New forecast layout! Learn more

10-Day Weather Forecast

Advertisements
Track Severe Weather on mobile